Time;durP1;ratioP1;P1;durP2;ratioP2;P2;SDS_P1;SDS_P2;PMS_P1;PMS_P2;Temp;Humidity;BMP_temperature;BMP_pressure;BME280_temperature;BME280_humidity;BME280_pressure;Samples;Min_cycle;Max_cycle;Signal;HPM_P1;HPM_P2
2023/05/08 00:01:49;;;;;;;21.38;19.48;;;12.50;99.90;;;;;;4999407;28;20527;-76
2023/05/08 00:04:16;;;;;;;21.25;19.48;;;12.40;99.90;;;;;;4991547;28;20100;-75
2023/05/08 00:06:42;;;;;;;22.42;20.42;;;12.40;99.90;;;;;;5016230;28;20112;-76
2023/05/08 00:09:08;;;;;;;22.17;20.27;;;12.30;99.90;;;;;;4987338;28;20043;-76
2023/05/08 00:11:34;;;;;;;22.40;20.55;;;12.30;99.90;;;;;;4990663;28;20513;-76
2023/05/08 00:13:59;;;;;;;21.88;19.98;;;12.30;99.90;;;;;;4992120;28;20125;-76
2023/05/08 00:16:25;;;;;;;23.15;21.15;;;12.30;99.90;;;;;;5003665;28;20042;-75
2023/05/08 00:18:52;;;;;;;21.88;19.88;;;12.30;99.90;;;;;;5007558;28;20582;-76
2023/05/08 00:21:18;;;;;;;22.15;20.25;;;12.20;99.90;;;;;;4992959;28;20053;-72
2023/05/08 00:23:44;;;;;;;22.25;20.35;;;12.20;99.90;;;;;;5002715;28;20088;-73
2023/05/08 00:26:10;;;;;;;21.58;19.67;;;12.20;99.90;;;;;;5007239;28;20042;-72
2023/05/08 00:28:35;;;;;;;23.00;21.05;;;12.20;99.90;;;;;;4986970;28;20038;-72
2023/05/08 00:31:01;;;;;;;21.95;20.05;;;12.20;99.90;;;;;;5007265;28;20034;-73
2023/05/08 00:33:27;;;;;;;21.98;20.17;;;12.20;99.90;;;;;;5008278;28;20393;-73
2023/05/08 00:36:00;;;;;;;22.10;20.00;;;12.20;99.90;;;;;;5008808;28;20053;-77
2023/05/08 00:38:26;;;;;;;22.77;20.73;;;12.10;99.90;;;;;;4992420;28;20038;-76
2023/05/08 00:40:51;;;;;;;23.10;21.10;;;12.10;99.90;;;;;;5000567;28;20131;-76
2023/05/08 00:43:18;;;;;;;22.23;20.23;;;12.10;99.90;;;;;;5010286;28;20085;-77
2023/05/08 00:45:44;;;;;;;23.00;21.00;;;12.10;99.90;;;;;;4987155;28;20046;-76
2023/05/08 00:48:10;;;;;;;22.27;20.30;;;12.10;99.90;;;;;;4998021;28;20041;-76
2023/05/08 00:50:36;;;;;;;22.25;20.40;;;12.00;99.90;;;;;;4973823;28;20669;-77
2023/05/08 00:53:03;;;;;;;22.52;20.63;;;12.00;99.90;;;;;;4997097;28;20510;-75
2023/05/08 00:55:30;;;;;;;22.52;20.50;;;12.00;99.90;;;;;;5003757;28;20133;-76
2023/05/08 00:57:56;;;;;;;21.35;19.55;;;12.00;99.90;;;;;;5009360;28;20052;-76
2023/05/08 01:00:23;;;;;;;22.88;20.98;;;12.00;99.90;;;;;;5006219;28;20048;-76
2023/05/08 01:02:49;;;;;;;22.42;20.58;;;12.00;99.90;;;;;;5005590;28;20077;-76
2023/05/08 01:05:15;;;;;;;22.05;20.13;;;12.00;99.90;;;;;;4989933;28;20497;-76
2023/05/08 01:07:41;;;;;;;23.88;21.73;;;11.90;99.90;;;;;;5006955;28;20054;-76
2023/05/08 01:10:07;;;;;;;22.60;20.80;;;11.90;99.90;;;;;;4986081;28;20061;-76
2023/05/08 01:12:39;;;;;;;23.17;21.13;;;11.90;99.90;;;;;;4978277;28;20050;-77
2023/05/08 01:15:17;;;;;;;23.58;21.55;;;11.90;99.90;;;;;;4987093;28;20441;-76
2023/05/08 01:18:06;;;;;;;23.15;21.25;;;11.80;99.90;;;;;;4973855;28;20057;-76
2023/05/08 01:20:44;;;;;;;23.42;21.42;;;11.80;99.90;;;;;;4985524;28;20046;-76
2023/05/08 01:23:31;;;;;;;23.85;21.75;;;11.80;99.90;;;;;;4981310;28;20049;-76
2023/05/08 01:26:16;;;;;;;23.20;21.02;;;11.70;99.90;;;;;;4981732;28;20053;-76
2023/05/08 01:29:00;;;;;;;23.13;21.13;;;11.70;99.90;;;;;;4981104;28;20145;-73
2023/05/08 01:31:59;;;;;;;23.38;21.48;;;11.60;99.90;;;;;;4982880;28;20522;-73
2023/05/08 01:34:34;;;;;;;24.33;22.23;;;11.60;99.90;;;;;;4982064;28;20100;-73
2023/05/08 01:37:05;;;;;;;21.88;19.98;;;11.60;99.90;;;;;;4966369;28;20065;-72
2023/05/08 01:39:34;;;;;;;22.77;20.80;;;11.50;99.90;;;;;;4985023;28;20082;-73
2023/05/08 01:42:30;;;;;;;23.52;21.42;;;11.50;99.90;;;;;;4981810;28;20050;-72
2023/05/08 01:45:03;;;;;;;22.13;20.27;;;11.50;99.90;;;;;;4980867;28;20050;-76
2023/05/08 01:47:35;;;;;;;22.27;20.42;;;11.40;99.90;;;;;;4982156;28;20065;-76
2023/05/08 01:50:13;;;;;;;21.70;19.90;;;11.40;99.90;;;;;;4985336;28;20118;-76
2023/05/08 01:52:52;;;;;;;20.80;19.00;;;11.50;99.90;;;;;;4984714;28;20082;-76
2023/05/08 01:55:29;;;;;;;22.92;21.00;;;11.50;99.90;;;;;;4985624;28;20078;-76
2023/05/08 01:57:57;;;;;;;22.23;20.42;;;11.50;99.90;;;;;;4980245;28;20053;-76
2023/05/08 02:00:26;;;;;;;22.65;20.73;;;11.40;99.90;;;;;;4975598;28;20078;-75
2023/05/08 02:02:56;;;;;;;24.33;22.30;;;11.40;99.90;;;;;;4987348;28;20053;-76
2023/05/08 02:05:24;;;;;;;23.02;21.02;;;11.30;99.90;;;;;;4975786;28;20741;-75
2023/05/08 02:07:51;;;;;;;22.67;20.75;;;11.30;99.90;;;;;;4983353;28;20042;-75
2023/05/08 02:10:19;;;;;;;22.52;20.63;;;11.30;99.90;;;;;;4992410;28;20061;-71
2023/05/08 02:12:50;;;;;;;22.42;20.52;;;11.20;99.90;;;;;;5003656;28;20072;-72
2023/05/08 02:15:17;;;;;;;22.85;20.85;;;11.20;99.90;;;;;;5002101;28;20066;-73
2023/05/08 02:17:45;;;;;;;23.65;21.65;;;11.20;99.90;;;;;;5005538;28;20156;-73
2023/05/08 02:20:13;;;;;;;23.90;21.90;;;11.10;99.90;;;;;;5001611;28;20038;-73
2023/05/08 02:22:44;;;;;;;23.40;21.40;;;11.10;99.90;;;;;;5003534;28;20042;-73
2023/05/08 02:25:13;;;;;;;23.20;21.17;;;11.10;99.90;;;;;;4998034;28;20060;-72
2023/05/08 02:27:44;;;;;;;23.80;21.67;;;11.10;99.90;;;;;;5003811;28;20052;-72
2023/05/08 02:30:14;;;;;;;23.58;21.63;;;11.00;99.90;;;;;;5003327;28;20790;-73
2023/05/08 02:32:42;;;;;;;;;;;11.00;99.90;;;;;;5005958;28;20132;-72
2023/05/08 02:35:13;;;;;;;24.00;22.00;;;11.00;99.90;;;;;;5003379;28;19929;-73
2023/05/08 02:37:42;;;;;;;23.55;21.55;;;11.00;99.90;;;;;;5003896;28;20464;-72
2023/05/08 02:40:10;;;;;;;23.52;21.42;;;11.00;99.90;;;;;;5004346;28;20403;-73
2023/05/08 02:42:36;;;;;;;22.40;20.30;;;11.00;99.90;;;;;;4985582;28;20045;-72
2023/05/08 02:45:03;;;;;;;22.23;20.42;;;11.00;99.90;;;;;;5000433;28;20045;-72
2023/05/08 02:48:08;;;;;;;22.77;20.77;;;11.00;99.90;;;;;;5004198;28;20045;-75
2023/05/08 02:50:54;;;;;;;23.38;21.38;;;10.90;99.90;;;;;;5003725;28;20042;-75
2023/05/08 02:53:31;;;;;;;23.85;21.80;;;10.90;99.90;;;;;;5002271;28;20049;-75
2023/05/08 02:56:05;;;;;;;21.92;20.15;;;10.90;99.90;;;;;;5001324;28;20068;-75
2023/05/08 02:58:41;;;;;;;22.20;20.27;;;10.80;99.90;;;;;;4999646;28;20045;-75
2023/05/08 03:01:32;;;;;;;22.75;20.75;;;10.80;99.90;;;;;;5002976;28;20475;-75
2023/05/08 03:04:38;;;;;;;23.25;21.10;;;10.80;99.90;;;;;;5002411;28;20042;-75
2023/05/08 03:07:05;;;;;;;23.50;21.50;;;10.80;99.90;;;;;;5000672;28;20116;-75
2023/05/08 03:09:47;;;;;;;22.85;20.90;;;10.80;99.90;;;;;;5003674;28;20455;-75
2023/05/08 03:12:21;;;;;;;23.30;21.17;;;10.80;99.90;;;;;;5001508;28;20563;-75
2023/05/08 03:15:03;;;;;;;24.15;22.00;;;10.70;99.90;;;;;;5001856;28;20054;-75
2023/05/08 03:17:32;;;;;;;23.42;21.35;;;10.70;99.90;;;;;;5003121;28;20572;-75
2023/05/08 03:20:04;;;;;;;22.92;21.02;;;10.70;99.90;;;;;;5004114;28;20037;-75
2023/05/08 03:22:33;;;;;;;22.92;21.00;;;10.70;99.90;;;;;;4984607;28;20037;-75
2023/05/08 03:25:01;;;;;;;22.80;20.80;;;10.70;99.90;;;;;;5003001;28;20038;-75
2023/05/08 03:27:29;;;;;;;23.00;21.00;;;10.60;99.90;;;;;;5004188;28;20030;-75
2023/05/08 03:29:56;;;;;;;22.75;20.83;;;10.60;99.90;;;;;;5003110;28;20501;-75
2023/05/08 03:32:26;;;;;;;23.02;21.02;;;10.60;99.90;;;;;;4985475;28;20100;-75
2023/05/08 03:34:54;;;;;;;22.73;20.83;;;10.60;99.90;;;;;;5001398;28;20121;-75
2023/05/08 03:37:23;;;;;;;23.42;21.48;;;10.50;99.90;;;;;;5003008;28;20060;-74
2023/05/08 03:39:54;;;;;;;23.55;21.45;;;10.50;99.90;;;;;;5004014;28;20049;-75
2023/05/08 03:42:26;;;;;;;23.60;21.38;;;10.50;99.90;;;;;;5003396;28;20050;-75
2023/05/08 03:44:53;;;;;;;22.88;20.88;;;10.50;99.90;;;;;;5001902;28;20424;-75
2023/05/08 03:47:20;;;;;;;23.73;21.63;;;10.50;99.90;;;;;;5004456;28;20456;-75
2023/05/08 03:49:48;;;;;;;23.52;21.50;;;10.40;99.90;;;;;;4992981;28;20757;-75
2023/05/08 03:52:15;;;;;;;22.77;20.77;;;10.40;99.90;;;;;;5006423;28;20048;-75
2023/05/08 03:54:41;;;;;;;23.15;21.05;;;10.40;99.90;;;;;;5007730;28;20037;-74
2023/05/08 03:57:07;;;;;;;21.88;20.08;;;10.40;99.90;;;;;;5005370;28;20691;-76
2023/05/08 03:59:33;;;;;;;23.33;21.33;;;10.30;99.90;;;;;;5006833;28;20444;-75
2023/05/08 04:02:40;;;;;;;24.48;22.38;;;10.30;99.90;;;;;;5001166;28;20104;-75
2023/05/08 04:05:33;;;;;;;24.48;22.27;;;10.30;99.90;;;;;;4988246;28;20046;-75
2023/05/08 04:08:07;;;;;;;22.73;20.67;;;10.30;99.90;;;;;;4980696;28;20500;-74
2023/05/08 04:10:43;;;;;;;23.15;21.15;;;10.30;99.90;;;;;;5006806;28;20060;-75
2023/05/08 04:13:17;;;;;;;22.80;20.80;;;10.30;99.90;;;;;;5007399;28;20603;-75
2023/05/08 04:15:50;;;;;;;22.45;20.38;;;10.30;99.90;;;;;;5006791;28;20143;-75
2023/05/08 04:18:21;;;;;;;23.67;21.48;;;10.20;99.90;;;;;;4990817;28;20551;-75
2023/05/08 04:20:49;;;;;;;23.08;21.08;;;10.20;99.90;;;;;;4989752;28;20081;-75
2023/05/08 04:23:19;;;;;;;23.00;21.02;;;10.20;99.90;;;;;;5004726;28;20659;-74
2023/05/08 04:25:47;;;;;;;23.20;21.13;;;10.20;99.90;;;;;;4988548;28;20049;-75
2023/05/08 04:28:14;;;;;;;23.60;21.60;;;10.20;99.90;;;;;;5006836;28;20042;-75
2023/05/08 04:30:40;;;;;;;23.80;21.70;;;10.20;99.90;;;;;;5006648;28;20393;-75
2023/05/08 04:33:07;;;;;;;23.63;21.45;;;10.20;99.90;;;;;;5004566;28;20054;-75
2023/05/08 04:35:33;;;;;;;24.20;22.02;;;10.20;99.90;;;;;;5006594;28;20038;-76
2023/05/08 04:37:59;;;;;;;22.85;20.90;;;10.20;99.90;;;;;;5005676;28;20077;-76
2023/05/08 04:40:25;;;;;;;24.00;21.92;;;10.20;99.90;;;;;;5004921;28;20069;-76
2023/05/08 04:42:51;;;;;;;24.95;22.73;;;10.20;99.90;;;;;;5005180;28;20552;-75
2023/05/08 04:45:17;;;;;;;23.25;21.25;;;10.20;99.90;;;;;;5003858;28;22344;-75
2023/05/08 04:47:43;;;;;;;22.63;20.65;;;10.20;99.90;;;;;;4983594;28;20103;-76
2023/05/08 04:50:09;;;;;;;22.27;20.30;;;10.30;99.90;;;;;;4985065;28;20041;-76
2023/05/08 04:52:35;;;;;;;22.73;20.73;;;10.30;99.90;;;;;;4971498;28;20042;-76
2023/05/08 04:55:01;;;;;;;23.05;21.05;;;10.30;99.90;;;;;;4987547;28;20030;-76
2023/05/08 04:57:27;;;;;;;22.90;20.95;;;10.40;99.90;;;;;;4997484;28;20393;-76
2023/05/08 04:59:53;;;;;;;21.88;19.98;;;10.40;99.90;;;;;;5004412;28;20044;-75
2023/05/08 05:02:18;;;;;;;23.20;21.20;;;10.40;99.90;;;;;;5003168;28;20041;-76
2023/05/08 05:04:44;;;;;;;22.48;20.58;;;10.40;99.90;;;;;;4986674;28;20461;-76
2023/05/08 05:07:10;;;;;;;22.42;20.50;;;10.40;99.90;;;;;;4989684;28;20038;-76
2023/05/08 05:09:37;;;;;;;21.45;19.65;;;10.50;99.90;;;;;;5005027;28;20040;-76
2023/05/08 05:12:05;;;;;;;22.95;20.95;;;10.50;99.90;;;;;;5006636;28;20061;-76
2023/05/08 05:14:31;;;;;;;21.35;19.45;;;10.60;99.90;;;;;;5004485;28;20124;-79
2023/05/08 05:16:57;;;;;;;21.10;19.33;;;10.60;99.90;;;;;;4984087;28;20045;-77
2023/05/08 05:19:22;;;;;;;21.23;19.35;;;10.60;99.90;;;;;;4976984;28;20046;-78
2023/05/08 05:21:48;;;;;;;21.63;19.73;;;10.60;99.90;;;;;;4986943;28;20645;-78
2023/05/08 05:24:14;;;;;;;22.77;20.77;;;10.70;99.90;;;;;;4983442;28;20042;-77
2023/05/08 05:26:40;;;;;;;21.27;19.45;;;10.70;99.90;;;;;;4970077;28;20057;-78
2023/05/08 05:29:06;;;;;;;20.80;19.00;;;10.70;99.90;;;;;;4979167;28;20037;-77
2023/05/08 05:31:32;;;;;;;19.92;18.08;;;10.80;99.90;;;;;;5005030;28;20046;-78
2023/05/08 05:33:58;;;;;;;21.40;19.60;;;10.90;99.90;;;;;;5006009;28;20049;-76
2023/05/08 05:36:24;;;;;;;20.55;18.77;;;10.90;99.90;;;;;;4968489;28;20107;-77
2023/05/08 05:38:49;;;;;;;21.45;19.55;;;11.00;99.90;;;;;;5005013;28;20171;-76
2023/05/08 05:41:15;;;;;;;20.70;18.90;;;11.00;99.90;;;;;;4970545;28;20136;-76
2023/05/08 05:43:41;;;;;;;21.05;19.25;;;11.10;99.90;;;;;;4986315;28;20041;-76
2023/05/08 05:46:08;;;;;;;20.65;18.85;;;11.10;99.90;;;;;;4987729;28;20045;-76
2023/05/08 05:48:34;;;;;;;19.98;18.27;;;11.20;99.90;;;;;;4987972;28;20034;-76
2023/05/08 05:51:00;;;;;;;19.95;18.35;;;11.20;99.90;;;;;;4985052;28;20323;-76
2023/05/08 05:53:26;;;;;;;20.05;18.35;;;11.20;99.90;;;;;;5008965;28;20514;-78
2023/05/08 05:55:52;;;;;;;20.52;18.63;;;11.30;99.90;;;;;;4985565;28;20042;-78
2023/05/08 05:58:18;;;;;;;20.08;18.15;;;11.40;99.90;;;;;;4972190;28;20570;-77
2023/05/08 06:00:45;;;;;;;19.70;18.10;;;11.40;99.90;;;;;;4987279;28;20436;-77
2023/05/08 06:03:10;;;;;;;20.73;19.02;;;11.50;99.90;;;;;;4967995;28;20050;-77
2023/05/08 06:05:37;;;;;;;19.50;17.80;;;11.50;99.90;;;;;;5005277;28;20100;-77
2023/05/08 06:08:04;;;;;;;19.48;17.77;;;11.60;99.90;;;;;;5004839;28;20045;-77
2023/05/08 06:10:30;;;;;;;20.05;18.35;;;11.60;99.90;;;;;;4988665;28;20584;-77
2023/05/08 06:12:56;;;;;;;19.48;17.77;;;11.70;99.90;;;;;;4987831;28;20114;-77
2023/05/08 06:15:22;;;;;;;20.33;18.58;;;11.70;99.90;;;;;;4982588;28;20104;-77
2023/05/08 06:17:48;;;;;;;19.92;18.23;;;11.80;99.90;;;;;;4969995;28;20042;-78
2023/05/08 06:20:13;;;;;;;19.85;18.05;;;11.90;99.90;;;;;;4984363;28;20045;-78
2023/05/08 06:22:42;;;;;;;19.20;17.50;;;11.90;99.90;;;;;;5000413;28;20127;-78
2023/05/08 06:25:08;;;;;;;18.58;16.85;;;12.00;99.90;;;;;;5005002;28;20034;-78
2023/05/08 06:27:34;;;;;;;20.17;18.48;;;12.00;99.90;;;;;;4987417;28;20069;-76
2023/05/08 06:30:01;;;;;;;19.08;17.45;;;12.10;99.90;;;;;;4983993;28;20081;-76
2023/05/08 06:32:27;;;;;;;18.73;17.20;;;12.20;99.90;;;;;;4972018;28;20111;-77
2023/05/08 06:34:53;;;;;;;65.72;31.35;;;12.20;99.90;;;;;;4988107;28;20041;-78
2023/05/08 06:37:18;;;;;;;70.22;31.60;;;12.30;99.90;;;;;;4970909;28;20050;-76
2023/05/08 06:39:44;;;;;;;24.00;18.08;;;12.40;99.90;;;;;;4986079;28;20041;-78
2023/05/08 06:42:10;;;;;;;18.52;16.95;;;12.50;99.90;;;;;;4961764;28;20068;-76
2023/05/08 06:44:36;;;;;;;18.90;17.40;;;12.70;99.90;;;;;;4979152;28;20038;-76
2023/05/08 06:47:02;;;;;;;18.45;16.95;;;12.80;99.90;;;;;;4982295;28;20034;-76
2023/05/08 06:49:28;;;;;;;19.25;17.50;;;13.00;99.90;;;;;;4988451;28;20042;-76
2023/05/08 06:51:54;;;;;;;18.35;16.75;;;13.00;99.90;;;;;;4967068;28;21008;-78
2023/05/08 06:54:19;;;;;;;18.58;17.08;;;13.10;99.90;;;;;;4985171;28;20050;-76
2023/05/08 06:56:45;;;;;;;17.90;16.30;;;13.10;99.90;;;;;;5003267;28;20058;-77
2023/05/08 06:59:11;;;;;;;17.75;16.27;;;13.20;99.90;;;;;;4968832;28;20045;-77
2023/05/08 07:01:37;;;;;;;18.30;16.70;;;13.20;99.90;;;;;;5002293;28;20064;-76
2023/05/08 07:04:03;;;;;;;17.95;16.35;;;13.20;99.90;;;;;;4986943;28;20123;-76
2023/05/08 07:06:30;;;;;;;17.48;15.95;;;13.30;99.90;;;;;;4986862;28;20042;-76
2023/05/08 07:08:56;;;;;;;18.40;16.55;;;13.30;99.90;;;;;;4987543;28;20034;-77
2023/05/08 07:11:22;;;;;;;16.90;15.43;;;13.30;99.90;;;;;;4980803;28;20137;-77
2023/05/08 07:13:48;;;;;;;18.33;16.80;;;13.40;99.90;;;;;;4967331;28;20486;-76
2023/05/08 07:16:15;;;;;;;18.58;16.75;;;13.40;99.90;;;;;;4985242;28;20053;-76
2023/05/08 07:18:41;;;;;;;17.40;15.90;;;13.50;99.90;;;;;;4959732;28;20496;-76
2023/05/08 07:21:07;;;;;;;17.80;16.30;;;13.50;99.90;;;;;;4984721;28;20176;-77
2023/05/08 07:23:33;;;;;;;18.20;16.50;;;13.60;99.90;;;;;;4981156;28;20575;-77
2023/05/08 07:25:59;;;;;;;18.20;16.52;;;13.70;99.90;;;;;;4977169;28;20129;-77
2023/05/08 07:28:24;;;;;;;17.65;16.05;;;13.80;99.90;;;;;;4982769;28;20073;-77
2023/05/08 07:30:51;;;;;;;18.20;16.52;;;14.00;99.90;;;;;;4983126;28;20050;-77
2023/05/08 07:33:17;;;;;;;17.23;15.77;;;14.20;99.90;;;;;;4978602;28;20045;-77
2023/05/08 07:35:43;;;;;;;18.13;16.52;;;14.30;99.90;;;;;;4966262;28;20066;-78
2023/05/08 07:38:09;;;;;;;17.45;15.95;;;14.40;99.90;;;;;;4973806;28;20124;-77
2023/05/08 07:40:34;;;;;;;18.23;16.83;;;14.50;99.90;;;;;;4996717;28;20528;-77
2023/05/08 07:43:00;;;;;;;17.23;15.82;;;14.60;99.90;;;;;;4980241;28;20046;-77
2023/05/08 07:45:26;;;;;;;17.10;15.70;;;14.80;99.90;;;;;;4980507;28;20465;-77
2023/05/08 07:47:57;;;;;;;17.10;15.57;;;14.90;99.90;;;;;;4983514;28;20409;-78
2023/05/08 07:50:25;;;;;;;17.80;16.23;;;15.00;99.90;;;;;;4989696;28;20042;-77
2023/05/08 07:52:54;;;;;;;17.15;15.60;;;15.00;99.90;;;;;;4967319;28;20112;-76
2023/05/08 07:55:20;;;;;;;16.27;14.98;;;14.90;99.90;;;;;;4980010;28;20128;-76
2023/05/08 07:57:46;;;;;;;17.15;15.70;;;14.90;99.90;;;;;;4977606;28;20057;-77
2023/05/08 08:00:13;;;;;;;17.88;16.38;;;15.00;99.90;;;;;;4962523;28;20420;-76
2023/05/08 08:02:40;;;;;;;16.88;15.38;;;15.00;99.90;;;;;;4982384;28;20074;-76
2023/05/08 08:05:07;;;;;;;18.58;16.98;;;15.00;99.90;;;;;;4965153;28;20053;-76
2023/05/08 08:07:32;;;;;;;17.85;16.30;;;15.00;99.90;;;;;;4979662;28;20050;-76
2023/05/08 08:09:59;;;;;;;18.25;16.75;;;15.10;99.90;;;;;;4978995;28;20046;-76
2023/05/08 08:12:25;;;;;;;18.73;17.13;;;15.20;99.90;;;;;;4967109;28;20427;-76
2023/05/08 08:14:51;;;;;;;18.45;16.95;;;15.40;99.90;;;;;;4981342;28;20046;-76
2023/05/08 08:17:17;;;;;;;17.88;16.40;;;15.50;99.90;;;;;;4972812;28;20069;-76
2023/05/08 08:19:43;;;;;;;18.15;16.30;;;15.60;99.90;;;;;;4977074;28;20046;-77
2023/05/08 08:22:08;;;;;;;18.75;17.13;;;15.70;99.90;;;;;;4980467;28;20477;-77
2023/05/08 08:24:34;;;;;;;18.20;16.70;;;15.90;99.90;;;;;;4982155;28;20046;-76
2023/05/08 08:27:00;;;;;;;17.80;16.20;;;16.10;99.90;;;;;;4981184;28;20043;-76
2023/05/08 08:29:26;;;;;;;18.48;16.77;;;16.40;99.90;;;;;;4966705;28;20438;-76
2023/05/08 08:31:52;;;;;;;17.65;16.15;;;16.70;99.90;;;;;;4961824;28;20129;-76
2023/05/08 08:34:18;;;;;;;18.05;16.55;;;16.80;99.90;;;;;;4995351;28;20046;-77
2023/05/08 08:36:44;;;;;;;19.23;17.73;;;17.00;99.90;;;;;;4985347;28;20046;-77
2023/05/08 08:39:10;;;;;;;19.30;17.60;;;17.10;99.90;;;;;;4999705;28;20045;-77
2023/05/08 08:41:38;;;;;;;19.25;17.45;;;17.20;99.90;;;;;;4983755;28;20042;-77
2023/05/08 08:44:04;;;;;;;19.27;17.75;;;17.30;99.90;;;;;;4983348;28;20490;-77
2023/05/08 08:46:32;;;;;;;18.52;16.92;;;17.30;99.90;;;;;;4977340;28;20054;-78
2023/05/08 08:49:01;;;;;;;19.63;17.90;;;17.30;99.90;;;;;;4980181;28;20129;-77
2023/05/08 08:51:31;;;;;;;19.92;18.10;;;17.20;99.90;;;;;;4984325;28;20046;-76
2023/05/08 08:54:12;;;;;;;18.05;16.55;;;17.20;99.90;;;;;;4984888;28;20057;-77
2023/05/08 08:56:43;;;;;;;19.98;18.27;;;17.20;99.90;;;;;;4958733;28;20489;-77
2023/05/08 08:59:12;;;;;;;18.83;17.33;;;17.20;99.90;;;;;;4985298;28;20101;-76
2023/05/08 09:01:39;;;;;;;19.25;17.60;;;17.20;99.90;;;;;;4981996;28;20054;-76
2023/05/08 09:04:05;;;;;;;17.95;16.45;;;17.20;99.90;;;;;;4985011;28;20142;-76
2023/05/08 09:06:35;;;;;;;19.42;17.67;;;17.20;99.90;;;;;;4970179;28;20042;-76
2023/05/08 09:09:01;;;;;;;;;;;17.30;99.90;;;;;;4964408;28;20711;-77
2023/05/08 09:11:27;;;;;;;19.13;17.35;;;17.30;99.90;;;;;;4984774;28;19921;-77
2023/05/08 09:13:54;;;;;;;19.33;17.65;;;17.30;99.90;;;;;;4985586;28;20038;-76
2023/05/08 09:16:22;;;;;;;19.10;17.58;;;17.40;99.90;;;;;;4985418;28;20137;-77
2023/05/08 09:18:47;;;;;;;19.63;18.13;;;17.50;99.90;;;;;;4983880;28;20046;-77
2023/05/08 09:21:13;;;;;;;19.23;17.52;;;17.60;99.90;;;;;;4986410;28;20096;-77
2023/05/08 09:24:00;;;;;;;18.08;16.58;;;17.80;99.90;;;;;;4983174;28;20230;-76
2023/05/08 09:26:32;;;;;;;18.75;17.25;;;18.00;99.90;;;;;;5000897;28;20483;-77
2023/05/08 09:29:16;;;;;;;20.38;18.52;;;18.20;99.90;;;;;;4983593;28;20108;-77
2023/05/08 09:32:00;;;;;;;17.95;16.42;;;18.50;99.90;;;;;;4982368;28;20060;-77
2023/05/08 09:34:31;;;;;;;17.23;15.63;;;18.70;99.90;;;;;;4985227;28;20044;-76
2023/05/08 09:37:03;;;;;;;17.75;16.25;;;18.90;99.90;;;;;;4986720;28;20081;-77
2023/05/08 09:39:29;;;;;;;18.00;16.50;;;19.10;99.90;;;;;;4979783;28;20043;-77
2023/05/08 09:41:57;;;;;;;18.38;16.75;;;19.30;99.90;;;;;;4967500;28;20058;-77
2023/05/08 09:44:23;;;;;;;17.90;16.20;;;19.50;99.90;;;;;;4978579;28;20046;-77
2023/05/08 09:46:49;;;;;;;16.50;15.20;;;19.60;99.90;;;;;;4979231;28;20049;-76
2023/05/08 09:49:18;;;;;;;15.55;14.25;;;19.70;99.90;;;;;;4983078;28;20074;-76
2023/05/08 09:51:54;;;;;;;17.00;15.60;;;19.90;99.90;;;;;;4985296;28;20065;-76
2023/05/08 09:54:20;;;;;;;15.75;14.45;;;20.00;99.90;;;;;;4992926;28;20042;-76
2023/05/08 09:56:46;;;;;;;15.40;14.20;;;20.10;99.90;;;;;;4986570;28;20536;-76
2023/05/08 09:59:26;;;;;;;16.42;14.82;;;20.20;99.90;;;;;;4982170;28;20133;-78
2023/05/08 10:01:52;;;;;;;16.85;15.50;;;20.20;99.90;;;;;;4984116;28;20705;-77
2023/05/08 10:04:33;;;;;;;17.90;16.30;;;20.30;99.90;;;;;;5001002;28;20043;-78
2023/05/08 10:07:00;;;;;;;17.65;16.25;;;20.40;99.90;;;;;;4986460;28;20046;-77
2023/05/08 10:09:29;;;;;;;17.17;15.60;;;20.40;99.90;;;;;;4979164;28;20109;-76
2023/05/08 10:11:55;;;;;;;18.50;17.02;;;20.30;99.90;;;;;;4967046;28;20054;-75
2023/05/08 10:14:24;;;;;;;18.73;17.13;;;20.40;99.90;;;;;;4983959;28;20121;-76
2023/05/08 10:16:52;;;;;;;18.98;17.35;;;20.40;99.90;;;;;;4974931;28;20047;-75
2023/05/08 10:19:20;;;;;;;18.42;16.92;;;20.50;99.90;;;;;;4991064;28;20093;-76
2023/05/08 10:21:54;;;;;;;19.50;17.80;;;20.60;99.90;;;;;;4978954;28;20088;-76
2023/05/08 10:24:30;;;;;;;16.73;15.32;;;20.60;99.90;;;;;;4984424;28;20034;-75
2023/05/08 10:27:12;;;;;;;17.33;15.90;;;20.70;99.90;;;;;;4979293;28;20129;-76
2023/05/08 10:29:55;;;;;;;17.02;15.63;;;20.80;99.90;;;;;;4982681;28;20054;-76
2023/05/08 10:32:27;;;;;;;17.10;15.60;;;20.90;99.90;;;;;;4983353;28;20134;-76
2023/05/08 10:34:57;;;;;;;17.85;16.15;;;20.90;99.90;;;;;;4983022;28;20043;-76
2023/05/08 10:37:23;;;;;;;16.65;15.15;;;20.90;99.90;;;;;;4982011;28;20046;-76
2023/05/08 10:39:51;;;;;;;17.63;15.98;;;20.90;99.90;;;;;;4999181;28;20061;-77
2023/05/08 10:42:17;;;;;;;20.00;18.05;;;20.90;99.90;;;;;;4986572;28;20097;-76
2023/05/08 10:44:43;;;;;;;19.38;17.77;;;21.00;99.90;;;;;;4980264;28;20046;-75
2023/05/08 10:47:52;;;;;;;18.75;17.15;;;21.10;99.90;;;;;;4986430;28;20050;-75
2023/05/08 10:50:50;;;;;;;20.27;18.70;;;21.30;99.90;;;;;;4985061;28;20058;-75
2023/05/08 10:53:25;;;;;;;20.08;18.35;;;21.30;99.90;;;;;;4999639;28;20050;-76
2023/05/08 10:55:54;;;;;;;20.48;18.60;;;21.40;99.90;;;;;;4978910;28;20043;-75
2023/05/08 10:58:23;;;;;;;19.25;17.75;;;21.50;99.90;;;;;;4984307;28;20104;-75
2023/05/08 11:00:51;;;;;;;19.13;17.40;;;21.70;99.90;;;;;;4981650;28;20050;-75
2023/05/08 11:03:23;;;;;;;18.48;16.88;;;21.70;99.90;;;;;;4984798;28;20042;-74
2023/05/08 11:05:50;;;;;;;19.67;17.98;;;21.70;99.90;;;;;;4982707;28;20056;-76
2023/05/08 11:08:27;;;;;;;18.55;17.05;;;21.70;99.90;;;;;;4984622;28;20073;-76
2023/05/08 11:10:59;;;;;;;20.13;18.50;;;21.80;99.90;;;;;;4989108;28;20842;-76
2023/05/08 11:13:34;;;;;;;18.48;16.90;;;21.90;99.90;;;;;;4968779;28;20619;-75
2023/05/08 11:16:00;;;;;;;20.33;18.40;;;21.90;99.90;;;;;;4999760;28;20428;-76
2023/05/08 11:18:27;;;;;;;19.52;17.83;;;22.10;99.90;;;;;;4986081;28;20060;-76
2023/05/08 11:21:03;;;;;;;19.58;17.98;;;22.10;99.90;;;;;;5001929;28;20455;-75
2023/05/08 11:23:31;;;;;;;19.52;17.73;;;22.10;99.50;;;;;;4999760;28;20038;-75
2023/05/08 11:26:05;;;;;;;18.42;16.73;;;22.20;99.90;;;;;;5001918;28;20042;-75
2023/05/08 11:28:55;;;;;;;19.60;17.98;;;22.30;99.90;;;;;;5001874;28;20089;-75
2023/05/08 11:31:50;;;;;;;20.88;19.05;;;22.40;99.90;;;;;;5003915;28;20670;-76
2023/05/08 11:34:55;;;;;;;20.05;18.45;;;22.40;99.90;;;;;;4987978;28;20073;-75
2023/05/08 11:37:23;;;;;;;19.23;17.63;;;22.50;98.40;;;;;;4963993;28;20057;-77
2023/05/08 11:39:49;;;;;;;20.17;18.48;;;22.40;98.80;;;;;;4957286;28;20501;-76
2023/05/08 11:42:25;;;;;;;19.63;17.92;;;22.30;98.40;;;;;;4982405;28;20382;-76
2023/05/08 11:45:08;;;;;;;18.85;17.33;;;22.20;99.90;;;;;;5003137;28;20038;-76
2023/05/08 11:47:42;;;;;;;19.83;18.23;;;22.30;99.90;;;;;;5003218;28;20054;-76
2023/05/08 11:50:10;;;;;;;17.98;16.38;;;22.30;99.60;;;;;;4972718;28;20104;-76
2023/05/08 11:52:39;;;;;;;15.70;14.00;;;22.40;99.70;;;;;;4984394;28;20033;-76
2023/05/08 11:55:07;;;;;;;14.88;13.27;;;22.50;99.50;;;;;;5003561;28;20500;-76
2023/05/08 11:57:34;;;;;;;15.85;14.52;;;22.70;99.30;;;;;;5000903;28;20033;-76
2023/05/08 12:00:10;;;;;;;16.67;15.20;;;22.80;99.20;;;;;;5001884;28;20046;-75
2023/05/08 12:02:39;;;;;;;18.58;16.88;;;23.00;97.40;;;;;;4984227;28;20116;-76
2023/05/08 12:05:06;;;;;;;16.88;15.38;;;23.00;98.00;;;;;;4982944;28;20050;-76
2023/05/08 12:07:32;;;;;;;16.27;14.80;;;23.10;98.70;;;;;;4971267;28;20042;-77
2023/05/08 12:10:02;;;;;;;18.63;16.83;;;23.20;98.20;;;;;;5007132;28;20041;-75
2023/05/08 12:12:42;;;;;;;17.75;16.05;;;23.30;96.70;;;;;;5002780;28;20041;-81
2023/05/08 12:15:13;;;;;;;17.60;15.98;;;23.20;97.00;;;;;;5004954;28;20034;-81
2023/05/08 12:17:40;;;;;;;14.73;13.43;;;23.00;96.60;;;;;;4984302;28;20591;-84
2023/05/08 12:20:16;;;;;;;15.23;13.85;;;23.00;97.00;;;;;;4986786;28;20029;-82
2023/05/08 12:22:49;;;;;;;17.95;16.35;;;22.90;97.00;;;;;;4973932;28;20060;-81
2023/05/08 12:25:34;;;;;;;17.48;15.90;;;23.00;98.40;;;;;;4987435;28;20050;-83
2023/05/08 12:28:00;;;;;;;15.07;13.63;;;23.10;98.70;;;;;;4983073;28;20046;-81
2023/05/08 12:30:26;;;;;;;13.77;12.32;;;23.10;97.10;;;;;;5004469;28;20108;-81
2023/05/08 12:32:52;;;;;;;13.68;12.57;;;23.10;97.40;;;;;;4984416;28;20045;-80
2023/05/08 12:35:18;;;;;;;16.52;15.02;;;23.30;97.10;;;;;;4982459;28;20520;-81
2023/05/08 12:37:46;;;;;;;17.52;15.93;;;23.40;97.20;;;;;;5006060;28;20041;-80
2023/05/08 12:40:39;;;;;;;15.50;14.00;;;23.50;96.50;;;;;;5004698;28;20497;-79
2023/05/08 12:43:05;;;;;;;18.30;16.75;;;23.70;96.70;;;;;;4988419;28;20707;-83